3NE3 weather

Wells Airport
Holdrege, Nebraska, United States

Public forecast

Using degrees Fahrenheit for public forecast. Weather courtesy of forecast.io.

Closest aviation weather report (METAR) to Wells Airport

Closest report is Brewster Field, 3.0 nm (5.6 km) SSW. Retrieved 2019/10/18 15:35 UTC (0 seconds ago):

KHDE 181535Z AUTO 22015G24KT 10SM CLR 17/03 A2946 RMK AO2 T01720032

Closest aviation forecast (TAF) to Wells Airport

Closest forecast is Kearney Regional Airport, 19.6 nm (36.4 km) NE. Retrieved 2019/10/18 12:40 UTC (2 hours ago):

TAF KEAR 181137Z 1812/1912 17014KT P6SM SKC WS008/20045KT FM181400 19016KT P6SM SKC FM190100 34013KT P6SM SCT040 SCT150 FM190200 34011KT P6SM SCT040 BKN120 FM190600 33007KT P6SM SCT250